sensor_id;sensor_type;location;lat;lon;timestamp;pressure;altitude;pressure_sealevel;temperature;humidity
48244;BME280;34053;51.088;6.572;2023-07-28T00:01:23;100002.06;;;17.73;93.79
48244;BME280;34053;51.088;6.572;2023-07-28T00:04:13;99998.97;;;17.67;94.28
48244;BME280;34053;51.088;6.572;2023-07-28T00:07:05;100000.53;;;17.69;94.43
48244;BME280;34053;51.088;6.572;2023-07-28T00:09:56;100005.84;;;17.69;94.35
48244;BME280;34053;51.088;6.572;2023-07-28T00:12:46;100000.22;;;17.74;94.20
48244;BME280;34053;51.088;6.572;2023-07-28T00:15:37;99998.22;;;17.65;95.01
48244;BME280;34053;51.088;6.572;2023-07-28T00:18:28;100003.13;;;17.71;94.71
48244;BME280;34053;51.088;6.572;2023-07-28T00:21:19;100004.81;;;17.72;94.58
48244;BME280;34053;51.088;6.572;2023-07-28T00:24:09;100000.88;;;17.77;94.18
48244;BME280;34053;51.088;6.572;2023-07-28T00:27:00;99998.34;;;17.76;94.53
48244;BME280;34053;51.088;6.572;2023-07-28T00:29:51;99998.84;;;17.81;93.69
48244;BME280;34053;51.088;6.572;2023-07-28T00:32:42;99993.78;;;17.78;93.97
48244;BME280;34053;51.088;6.572;2023-07-28T00:35:32;99994.22;;;17.72;94.78
48244;BME280;34053;51.088;6.572;2023-07-28T00:38:23;99992.50;;;17.71;94.98
48244;BME280;34053;51.088;6.572;2023-07-28T00:41:14;99992.38;;;17.72;94.84
48244;BME280;34053;51.088;6.572;2023-07-28T00:44:05;99991.75;;;17.82;94.16
48244;BME280;34053;51.088;6.572;2023-07-28T00:46:56;99991.97;;;17.78;94.30
48244;BME280;34053;51.088;6.572;2023-07-28T00:49:47;99991.56;;;17.85;94.07
48244;BME280;34053;51.088;6.572;2023-07-28T00:52:38;99991.00;;;17.80;94.56
48244;BME280;34053;51.088;6.572;2023-07-28T00:55:29;99990.91;;;17.81;94.76
48244;BME280;34053;51.088;6.572;2023-07-28T00:58:20;99990.25;;;17.77;94.84
48244;BME280;34053;51.088;6.572;2023-07-28T01:01:10;99994.22;;;17.85;94.07
48244;BME280;34053;51.088;6.572;2023-07-28T01:04:02;99995.16;;;17.84;94.72
48244;BME280;34053;51.088;6.572;2023-07-28T01:10:00;99989.84;;;17.84;94.91
48244;BME280;34053;51.088;6.572;2023-07-28T01:12:51;99990.25;;;17.77;95.97
48244;BME280;34053;51.088;6.572;2023-07-28T01:15:42;99987.53;;;17.79;96.51
48244;BME280;34053;51.088;6.572;2023-07-28T01:18:33;99986.66;;;17.78;96.74
48244;BME280;34053;51.088;6.572;2023-07-28T01:21:30;99983.47;;;17.73;97.41
48244;BME280;34053;51.088;6.572;2023-07-28T01:24:50;99978.38;;;17.70;97.77
48244;BME280;34053;51.088;6.572;2023-07-28T01:27:42;99983.03;;;17.67;98.35
48244;BME280;34053;51.088;6.572;2023-07-28T01:30:34;99977.00;;;17.65;98.79
48244;BME280;34053;51.088;6.572;2023-07-28T01:33:25;99988.16;;;17.70;98.45
48244;BME280;34053;51.088;6.572;2023-07-28T01:36:15;99977.53;;;17.70;98.30
48244;BME280;34053;51.088;6.572;2023-07-28T01:39:06;99983.59;;;17.72;97.52
48244;BME280;34053;51.088;6.572;2023-07-28T01:41:57;99990.47;;;17.61;99.27
48244;BME280;34053;51.088;6.572;2023-07-28T01:44:49;99982.41;;;17.63;99.38
48244;BME280;34053;51.088;6.572;2023-07-28T01:47:40;99985.50;;;17.70;99.03
48244;BME280;34053;51.088;6.572;2023-07-28T01:50:31;99982.63;;;17.73;98.61
48244;BME280;34053;51.088;6.572;2023-07-28T01:53:22;99980.50;;;17.65;99.70
48244;BME280;34053;51.088;6.572;2023-07-28T01:56:12;99977.66;;;17.68;99.16
48244;BME280;34053;51.088;6.572;2023-07-28T01:59:03;99976.34;;;17.74;98.21
48244;BME280;34053;51.088;6.572;2023-07-28T02:01:54;99981.16;;;17.69;99.32
48244;BME280;34053;51.088;6.572;2023-07-28T02:04:45;99975.09;;;17.67;99.59
48244;BME280;34053;51.088;6.572;2023-07-28T02:07:36;99969.69;;;17.68;99.36
48244;BME280;34053;51.088;6.572;2023-07-28T02:10:28;99976.47;;;17.72;98.48
48244;BME280;34053;51.088;6.572;2023-07-28T02:13:19;99973.38;;;17.66;99.76
48244;BME280;34053;51.088;6.572;2023-07-28T02:16:10;99975.31;;;17.64;100.00
48244;BME280;34053;51.088;6.572;2023-07-28T02:19:00;99979.13;;;17.72;98.67
48244;BME280;34053;51.088;6.572;2023-07-28T02:21:51;99980.31;;;17.68;99.63
48244;BME280;34053;51.088;6.572;2023-07-28T02:24:42;99980.19;;;17.70;99.87
48244;BME280;34053;51.088;6.572;2023-07-28T02:27:33;99977.31;;;17.73;99.95
48244;BME280;34053;51.088;6.572;2023-07-28T02:30:24;99983.69;;;17.70;99.68
48244;BME280;34053;51.088;6.572;2023-07-28T02:33:14;99976.66;;;17.69;100.00
48244;BME280;34053;51.088;6.572;2023-07-28T02:36:05;99979.88;;;17.61;100.00
48244;BME280;34053;51.088;6.572;2023-07-28T02:38:56;99983.78;;;17.56;100.00
48244;BME280;34053;51.088;6.572;2023-07-28T02:41:47;99982.53;;;17.61;100.00
48244;BME280;34053;51.088;6.572;2023-07-28T02:44:38;99982.41;;;17.63;100.00
48244;BME280;34053;51.088;6.572;2023-07-28T02:47:29;99989.41;;;17.64;100.00
48244;BME280;34053;51.088;6.572;2023-07-28T02:50:20;99993.47;;;17.70;99.77
48244;BME280;34053;51.088;6.572;2023-07-28T02:53:10;99992.06;;;17.77;99.64
48244;BME280;34053;51.088;6.572;2023-07-28T02:56:01;99993.13;;;17.74;99.85
48244;BME280;34053;51.088;6.572;2023-07-28T02:58:52;99998.75;;;17.70;100.00
48244;BME280;34053;51.088;6.572;2023-07-28T03:01:43;100001.72;;;17.65;100.00
48244;BME280;34053;51.088;6.572;2023-07-28T03:04:34;99995.34;;;17.68;100.00
48244;BME280;34053;51.088;6.572;2023-07-28T03:07:24;100003.13;;;17.71;100.00
48244;BME280;34053;51.088;6.572;2023-07-28T03:10:15;100001.94;;;17.75;100.00
48244;BME280;34053;51.088;6.572;2023-07-28T03:13:09;100001.19;;;17.73;100.00
48244;BME280;34053;51.088;6.572;2023-07-28T03:16:00;100003.31;;;17.68;100.00
48244;BME280;34053;51.088;6.572;2023-07-28T03:18:50;100002.56;;;17.78;100.00
48244;BME280;34053;51.088;6.572;2023-07-28T03:21:41;100003.53;;;17.77;100.00
48244;BME280;34053;51.088;6.572;2023-07-28T03:24:32;100005.97;;;17.68;100.00
48244;BME280;34053;51.088;6.572;2023-07-28T03:27:23;100001.00;;;17.76;100.00
48244;BME280;34053;51.088;6.572;2023-07-28T03:30:14;100006.84;;;17.68;100.00
48244;BME280;34053;51.088;6.572;2023-07-28T03:33:04;100008.19;;;17.74;100.00
48244;BME280;34053;51.088;6.572;2023-07-28T03:35:55;100011.38;;;17.66;100.00
48244;BME280;34053;51.088;6.572;2023-07-28T03:38:46;99999.50;;;17.59;100.00
48244;BME280;34053;51.088;6.572;2023-07-28T03:41:37;100011.28;;;17.68;100.00
48244;BME280;34053;51.088;6.572;2023-07-28T03:44:28;100015.75;;;17.67;100.00
48244;BME280;34053;51.088;6.572;2023-07-28T03:47:19;100016.16;;;17.74;100.00
48244;BME280;34053;51.088;6.572;2023-07-28T03:50:10;100018.41;;;17.67;100.00
48244;BME280;34053;51.088;6.572;2023-07-28T03:53:01;100018.28;;;17.69;100.00
48244;BME280;34053;51.088;6.572;2023-07-28T03:55:51;100024.22;;;17.72;100.00
48244;BME280;34053;51.088;6.572;2023-07-28T03:58:42;100023.16;;;17.75;100.00
48244;BME280;34053;51.088;6.572;2023-07-28T04:01:33;100012.66;;;17.73;100.00
48244;BME280;34053;51.088;6.572;2023-07-28T04:04:24;100013.75;;;17.84;100.00
48244;BME280;34053;51.088;6.572;2023-07-28T04:07:15;100018.59;;;17.77;100.00
48244;BME280;34053;51.088;6.572;2023-07-28T04:10:06;100021.06;;;17.80;100.00
48244;BME280;34053;51.088;6.572;2023-07-28T04:12:56;100016.16;;;17.74;100.00
48244;BME280;34053;51.088;6.572;2023-07-28T04:15:47;100018.81;;;17.74;100.00
48244;BME280;34053;51.088;6.572;2023-07-28T04:18:38;100010.31;;;17.69;100.00
48244;BME280;34053;51.088;6.572;2023-07-28T04:21:29;100013.72;;;17.71;100.00
48244;BME280;34053;51.088;6.572;2023-07-28T04:24:20;100020.75;;;17.72;100.00
48244;BME280;34053;51.088;6.572;2023-07-28T04:27:11;100026.69;;;17.75;100.00
48244;BME280;34053;51.088;6.572;2023-07-28T04:30:01;100026.88;;;17.72;100.00
48244;BME280;34053;51.088;6.572;2023-07-28T04:32:52;100025.06;;;17.73;100.00
48244;BME280;34053;51.088;6.572;2023-07-28T04:35:43;100032.19;;;17.85;100.00
48244;BME280;34053;51.088;6.572;2023-07-28T04:38:34;100026.56;;;17.77;100.00
48244;BME280;34053;51.088;6.572;2023-07-28T04:41:25;100026.13;;;17.83;100.00
48244;BME280;34053;51.088;6.572;2023-07-28T04:44:16;100025.00;;;17.87;100.00
48244;BME280;34053;51.088;6.572;2023-07-28T04:47:07;100031.03;;;17.89;100.00
48244;BME280;34053;51.088;6.572;2023-07-28T04:49:58;100039.09;;;17.88;100.00
48244;BME280;34053;51.088;6.572;2023-07-28T04:52:49;100036.75;;;17.83;100.00
48244;BME280;34053;51.088;6.572;2023-07-28T04:55:39;100039.53;;;17.82;100.00
48244;BME280;34053;51.088;6.572;2023-07-28T04:58:30;100039.31;;;17.85;100.00
48244;BME280;34053;51.088;6.572;2023-07-28T05:01:21;100043.34;;;17.90;100.00
48244;BME280;34053;51.088;6.572;2023-07-28T05:04:12;100046.75;;;17.92;100.00
48244;BME280;34053;51.088;6.572;2023-07-28T05:07:03;100052.03;;;17.92;100.00
48244;BME280;34053;51.088;6.572;2023-07-28T05:09:54;100044.41;;;17.88;100.00
48244;BME280;34053;51.088;6.572;2023-07-28T05:12:45;100049.59;;;17.89;100.00
48244;BME280;34053;51.088;6.572;2023-07-28T05:15:36;100055.88;;;17.88;100.00
48244;BME280;34053;51.088;6.572;2023-07-28T05:18:27;100053.00;;;17.91;100.00
48244;BME280;34053;51.088;6.572;2023-07-28T05:21:18;100056.72;;;17.89;100.00
48244;BME280;34053;51.088;6.572;2023-07-28T05:24:08;100055.88;;;17.88;100.00
48244;BME280;34053;51.088;6.572;2023-07-28T05:26:59;100060.97;;;17.91;100.00
48244;BME280;34053;51.088;6.572;2023-07-28T05:29:50;100066.38;;;17.90;100.00
48244;BME280;34053;51.088;6.572;2023-07-28T05:32:41;100070.75;;;17.91;100.00
48244;BME280;34053;51.088;6.572;2023-07-28T05:35:32;100071.81;;;17.88;100.00
48244;BME280;34053;51.088;6.572;2023-07-28T05:38:22;100071.56;;;17.91;100.00
48244;BME280;34053;51.088;6.572;2023-07-28T05:41:13;100072.44;;;17.92;100.00
48244;BME280;34053;51.088;6.572;2023-07-28T05:44:04;100082.84;;;17.95;100.00
48244;BME280;34053;51.088;6.572;2023-07-28T05:46:55;100081.72;;;17.99;100.00
48244;BME280;34053;51.088;6.572;2023-07-28T05:49:46;100082.78;;;17.97;100.00
48244;BME280;34053;51.088;6.572;2023-07-28T05:52:37;100085.75;;;18.05;100.00
48244;BME280;34053;51.088;6.572;2023-07-28T05:55:27;100089.56;;;18.01;100.00
48244;BME280;34053;51.088;6.572;2023-07-28T05:58:18;100096.38;;;18.05;100.00
48244;BME280;34053;51.088;6.572;2023-07-28T06:01:09;100098.91;;;18.06;100.00
48244;BME280;34053;51.088;6.572;2023-07-28T06:04:00;100099.03;;;18.05;100.00
48244;BME280;34053;51.088;6.572;2023-07-28T06:06:51;100098.16;;;18.04;100.00
48244;BME280;34053;51.088;6.572;2023-07-28T06:09:42;100102.53;;;18.05;100.00
48244;BME280;34053;51.088;6.572;2023-07-28T06:12:33;100102.63;;;18.04;100.00
48244;BME280;34053;51.088;6.572;2023-07-28T06:15:24;100091.25;;;18.02;100.00
48244;BME280;34053;51.088;6.572;2023-07-28T06:18:15;100103.78;;;18.13;100.00
48244;BME280;34053;51.088;6.572;2023-07-28T06:21:07;100099.34;;;18.13;100.00
48244;BME280;34053;51.088;6.572;2023-07-28T06:23:58;100107.31;;;18.13;100.00
48244;BME280;34053;51.088;6.572;2023-07-28T06:26:48;100110.28;;;18.21;100.00
48244;BME280;34053;51.088;6.572;2023-07-28T06:29:40;100112.63;;;18.13;100.00
48244;BME280;34053;51.088;6.572;2023-07-28T06:32:31;100118.88;;;18.12;100.00
48244;BME280;34053;51.088;6.572;2023-07-28T06:35:22;100119.94;;;18.09;100.00
48244;BME280;34053;51.088;6.572;2023-07-28T06:38:13;100123.66;;;18.20;100.00
48244;BME280;34053;51.088;6.572;2023-07-28T06:41:04;100124.53;;;18.20;100.00
48244;BME280;34053;51.088;6.572;2023-07-28T06:43:55;100130.78;;;18.19;100.00
48244;BME280;34053;51.088;6.572;2023-07-28T06:46:45;100135.34;;;18.17;100.00
48244;BME280;34053;51.088;6.572;2023-07-28T06:49:37;100142.16;;;18.21;100.00
48244;BME280;34053;51.088;6.572;2023-07-28T06:52:28;100135.22;;;18.19;100.00
48244;BME280;34053;51.088;6.572;2023-07-28T06:55:19;100140.44;;;18.20;100.00
48244;BME280;34053;51.088;6.572;2023-07-28T06:58:12;100145.53;;;18.23;100.00
48244;BME280;34053;51.088;6.572;2023-07-28T07:01:02;100147.88;;;18.28;100.00
48244;BME280;34053;51.088;6.572;2023-07-28T07:03:53;100151.78;;;18.22;100.00
48244;BME280;34053;51.088;6.572;2023-07-28T07:06:44;100148.75;;;18.29;100.00
48244;BME280;34053;51.088;6.572;2023-07-28T07:09:35;100160.31;;;18.28;100.00
48244;BME280;34053;51.088;6.572;2023-07-28T07:12:27;100155.97;;;18.27;100.00
48244;BME280;34053;51.088;6.572;2023-07-28T07:15:17;100153.50;;;18.23;100.00
48244;BME280;34053;51.088;6.572;2023-07-28T07:18:08;100154.44;;;18.22;100.00
48244;BME280;34053;51.088;6.572;2023-07-28T07:21:02;100160.63;;;18.36;100.00
48244;BME280;34053;51.088;6.572;2023-07-28T07:23:53;100157.66;;;18.28;100.00
48244;BME280;34053;51.088;6.572;2023-07-28T07:26:44;100156.47;;;18.32;100.00
48244;BME280;34053;51.088;6.572;2023-07-28T07:29:35;100156.81;;;18.40;100.00
48244;BME280;34053;51.088;6.572;2023-07-28T07:32:26;100160.41;;;18.39;100.00
48244;BME280;34053;51.088;6.572;2023-07-28T07:35:17;100165.72;;;18.39;100.00
48244;BME280;34053;51.088;6.572;2023-07-28T07:38:08;100163.81;;;18.41;100.00
48244;BME280;34053;51.088;6.572;2023-07-28T07:40:59;100167.34;;;18.42;100.00
48244;BME280;34053;51.088;6.572;2023-07-28T07:43:54;100171.25;;;18.36;100.00
48244;BME280;34053;51.088;6.572;2023-07-28T07:46:44;100168.38;;;18.52;100.00
48244;BME280;34053;51.088;6.572;2023-07-28T07:49:35;100179.97;;;18.38;100.00
48244;BME280;34053;51.088;6.572;2023-07-28T07:52:26;100179.75;;;18.41;100.00
48244;BME280;34053;51.088;6.572;2023-07-28T07:55:17;100182.31;;;18.43;100.00
48244;BME280;34053;51.088;6.572;2023-07-28T07:58:08;100188.59;;;18.42;100.00
48244;BME280;34053;51.088;6.572;2023-07-28T08:00:59;100188.47;;;18.56;100.00
48244;BME280;34053;51.088;6.572;2023-07-28T08:03:49;100189.88;;;18.49;100.00
48244;BME280;34053;51.088;6.572;2023-07-28T08:06:40;100186.00;;;18.40;100.00
48244;BME280;34053;51.088;6.572;2023-07-28T08:09:31;100189.22;;;18.45;100.00
48244;BME280;34053;51.088;6.572;2023-07-28T08:12:22;100191.44;;;18.51;100.00
48244;BME280;34053;51.088;6.572;2023-07-28T08:15:13;100195.59;;;18.55;100.00
48244;BME280;34053;51.088;6.572;2023-07-28T08:18:04;100190.59;;;18.64;100.00
48244;BME280;34053;51.088;6.572;2023-07-28T08:20:54;100196.00;;;18.62;100.00
48244;BME280;34053;51.088;6.572;2023-07-28T08:23:45;100201.00;;;18.67;100.00
48244;BME280;34053;51.088;6.572;2023-07-28T08:26:36;100195.50;;;18.70;100.00
48244;BME280;34053;51.088;6.572;2023-07-28T08:29:27;100195.81;;;18.78;100.00
48244;BME280;34053;51.088;6.572;2023-07-28T08:32:17;100195.91;;;18.77;100.00
48244;BME280;34053;51.088;6.572;2023-07-28T08:35:09;100191.66;;;18.87;100.00
48244;BME280;34053;51.088;6.572;2023-07-28T08:38:00;100199.50;;;18.88;99.62
48244;BME280;34053;51.088;6.572;2023-07-28T08:40:51;100186.66;;;18.95;99.19
48244;BME280;34053;51.088;6.572;2023-07-28T08:43:42;100194.19;;;19.01;98.98
48244;BME280;34053;51.088;6.572;2023-07-28T08:46:33;100196.22;;;19.11;98.63
48244;BME280;34053;51.088;6.572;2023-07-28T08:49:29;100190.34;;;19.18;98.38
48244;BME280;34053;51.088;6.572;2023-07-28T08:52:22;100189.69;;;19.28;98.67
48244;BME280;34053;51.088;6.572;2023-07-28T08:55:12;100195.41;;;19.34;98.73
48244;BME280;34053;51.088;6.572;2023-07-28T08:58:20;100196.44;;;19.45;96.93
48244;BME280;34053;51.088;6.572;2023-07-28T09:01:12;100207.06;;;19.45;96.05
48244;BME280;34053;51.088;6.572;2023-07-28T09:04:09;100209.41;;;19.49;96.04
48244;BME280;34053;51.088;6.572;2023-07-28T09:07:04;100203.25;;;19.49;95.96
48244;BME280;34053;51.088;6.572;2023-07-28T09:09:59;100219.59;;;19.56;95.53
48244;BME280;34053;51.088;6.572;2023-07-28T09:12:51;100220.47;;;19.56;93.80
48244;BME280;34053;51.088;6.572;2023-07-28T09:15:42;100213.59;;;19.65;93.34
48244;BME280;34053;51.088;6.572;2023-07-28T09:18:33;100211.00;;;19.76;93.42
48244;BME280;34053;51.088;6.572;2023-07-28T09:21:23;100212.72;;;19.77;92.87
48244;BME280;34053;51.088;6.572;2023-07-28T09:24:14;100212.25;;;19.84;93.61
48244;BME280;34053;51.088;6.572;2023-07-28T09:27:06;100202.41;;;19.97;93.40
48244;BME280;34053;51.088;6.572;2023-07-28T09:29:57;100209.22;;;20.01;92.63
48244;BME280;34053;51.088;6.572;2023-07-28T09:32:49;100211.81;;;20.14;90.76
48244;BME280;34053;51.088;6.572;2023-07-28T09:35:48;100213.16;;;20.20;91.29
48244;BME280;34053;51.088;6.572;2023-07-28T09:38:40;100203.97;;;20.24;91.45
48244;BME280;34053;51.088;6.572;2023-07-28T09:41:32;100209.78;;;20.29;91.17
48244;BME280;34053;51.088;6.572;2023-07-28T09:44:25;100207.09;;;20.29;89.34
48244;BME280;34053;51.088;6.572;2023-07-28T09:47:15;100203.59;;;20.28;89.04
48244;BME280;34053;51.088;6.572;2023-07-28T09:50:08;100208.72;;;20.32;89.29
48244;BME280;34053;51.088;6.572;2023-07-28T09:53:04;100220.81;;;20.24;89.64
48244;BME280;34053;51.088;6.572;2023-07-28T09:55:55;100222.59;;;20.24;90.05
48244;BME280;34053;51.088;6.572;2023-07-28T09:58:50;100213.91;;;20.33;91.43
48244;BME280;34053;51.088;6.572;2023-07-28T10:01:43;100218.53;;;20.42;91.78
48244;BME280;34053;51.088;6.572;2023-07-28T10:04:35;100215.53;;;20.47;91.17
48244;BME280;34053;51.088;6.572;2023-07-28T10:07:27;100217.84;;;20.52;90.71
48244;BME280;34053;51.088;6.572;2023-07-28T10:10:18;100214.66;;;20.47;91.18
48244;BME280;34053;51.088;6.572;2023-07-28T10:13:19;100213.91;;;20.33;90.68
48244;BME280;34053;51.088;6.572;2023-07-28T10:16:10;100223.00;;;20.42;90.47
48244;BME280;34053;51.088;6.572;2023-07-28T10:19:01;100219.75;;;20.50;90.21
48244;BME280;34053;51.088;6.572;2023-07-28T10:22:01;100219.28;;;20.56;90.48
48244;BME280;34053;51.088;6.572;2023-07-28T10:27:45;100221.28;;;20.77;90.49
48244;BME280;34053;51.088;6.572;2023-07-28T10:30:39;100214.59;;;20.71;89.20
48244;BME280;34053;51.088;6.572;2023-07-28T10:33:44;100219.59;;;20.75;90.12
48244;BME280;34053;51.088;6.572;2023-07-28T10:36:35;100225.91;;;20.86;90.08
48244;BME280;34053;51.088;6.572;2023-07-28T10:39:26;100230.25;;;20.75;89.07
48244;BME280;34053;51.088;6.572;2023-07-28T10:42:17;100217.66;;;20.78;89.51
48244;BME280;34053;51.088;6.572;2023-07-28T10:45:08;100231.00;;;20.78;89.46
48244;BME280;34053;51.088;6.572;2023-07-28T10:48:00;100229.53;;;20.85;89.70
48244;BME280;34053;51.088;6.572;2023-07-28T10:50:51;100226.88;;;20.85;89.66
48244;BME280;34053;51.088;6.572;2023-07-28T10:53:43;100226.41;;;21.02;89.10
48244;BME280;34053;51.088;6.572;2023-07-28T10:56:33;100222.50;;;20.95;88.37
48244;BME280;34053;51.088;6.572;2023-07-28T10:59:24;100225.31;;;21.05;89.07
48244;BME280;34053;51.088;6.572;2023-07-28T11:02:15;100217.66;;;21.23;87.89
48244;BME280;34053;51.088;6.572;2023-07-28T11:05:12;100227.13;;;21.27;86.99
48244;BME280;34053;51.088;6.572;2023-07-28T11:08:03;100220.19;;;21.36;86.36
48244;BME280;34053;51.088;6.572;2023-07-28T11:10:54;100219.56;;;21.44;85.95
48244;BME280;34053;51.088;6.572;2023-07-28T11:13:45;100213.72;;;21.38;84.97
48244;BME280;34053;51.088;6.572;2023-07-28T11:16:37;100221.63;;;21.63;87.95
48244;BME280;34053;51.088;6.572;2023-07-28T11:19:29;100223.03;;;21.67;86.16
48244;BME280;34053;51.088;6.572;2023-07-28T11:22:20;100219.31;;;21.58;85.22
48244;BME280;34053;51.088;6.572;2023-07-28T11:25:11;100212.72;;;21.74;85.76
48244;BME280;34053;51.088;6.572;2023-07-28T11:28:03;100214.13;;;21.89;85.36
48244;BME280;34053;51.088;6.572;2023-07-28T11:30:58;100217.59;;;21.68;80.72
48244;BME280;34053;51.088;6.572;2023-07-28T11:33:49;100215.16;;;21.65;80.87
48244;BME280;34053;51.088;6.572;2023-07-28T11:36:41;100218.06;;;21.62;80.97
48244;BME280;34053;51.088;6.572;2023-07-28T11:39:32;100221.25;;;21.67;81.21
48244;BME280;34053;51.088;6.572;2023-07-28T11:42:23;100226.09;;;21.62;81.93
48244;BME280;34053;51.088;6.572;2023-07-28T11:45:15;100227.16;;;21.71;82.64
48244;BME280;34053;51.088;6.572;2023-07-28T11:48:06;100229.84;;;21.60;84.71
48244;BME280;34053;51.088;6.572;2023-07-28T11:50:57;100222.44;;;21.75;85.85
48244;BME280;34053;51.088;6.572;2023-07-28T11:53:48;100230.91;;;21.80;86.82
48244;BME280;34053;51.088;6.572;2023-07-28T11:56:43;100230.69;;;21.72;87.25
48244;BME280;34053;51.088;6.572;2023-07-28T11:59:35;100223.63;;;21.82;86.77
48244;BME280;34053;51.088;6.572;2023-07-28T12:02:26;100224.59;;;21.81;88.02
48244;BME280;34053;51.088;6.572;2023-07-28T12:05:18;100219.97;;;21.83;88.81
48244;BME280;34053;51.088;6.572;2023-07-28T12:08:09;100226.31;;;21.70;88.67
48244;BME280;34053;51.088;6.572;2023-07-28T12:10:59;100228.50;;;21.77;87.03
48244;BME280;34053;51.088;6.572;2023-07-28T12:13:50;100232.63;;;21.69;86.33
48244;BME280;34053;51.088;6.572;2023-07-28T12:16:47;100229.34;;;21.66;85.90
48244;BME280;34053;51.088;6.572;2023-07-28T12:20:01;100235.91;;;21.73;85.96
48244;BME280;34053;51.088;6.572;2023-07-28T12:22:52;100221.91;;;21.81;87.31
48244;BME280;34053;51.088;6.572;2023-07-28T12:25:43;100227.47;;;21.89;86.66
48244;BME280;34053;51.088;6.572;2023-07-28T12:28:34;100227.09;;;21.94;86.85
48244;BME280;34053;51.088;6.572;2023-07-28T12:31:25;100224.16;;;21.97;85.97
48244;BME280;34053;51.088;6.572;2023-07-28T12:34:16;100229.38;;;21.98;85.34
48244;BME280;34053;51.088;6.572;2023-07-28T12:37:07;100232.56;;;21.92;86.21
48244;BME280;34053;51.088;6.572;2023-07-28T12:39:57;100225.59;;;22.01;87.23
48244;BME280;34053;51.088;6.572;2023-07-28T12:42:48;100226.19;;;22.05;86.90
48244;BME280;34053;51.088;6.572;2023-07-28T12:45:39;100234.19;;;22.05;86.16
48244;BME280;34053;51.088;6.572;2023-07-28T12:48:30;100232.50;;;22.04;86.49
48244;BME280;34053;51.088;6.572;2023-07-28T12:51:21;100233.44;;;22.14;85.55
48244;BME280;34053;51.088;6.572;2023-07-28T12:54:11;100240.84;;;22.10;85.01
48244;BME280;34053;51.088;6.572;2023-07-28T12:57:02;100243.88;;;22.17;85.00
48244;BME280;34053;51.088;6.572;2023-07-28T12:59:53;100241.00;;;22.09;84.56
48244;BME280;34053;51.088;6.572;2023-07-28T13:02:45;100242.41;;;22.13;84.73
48244;BME280;34053;51.088;6.572;2023-07-28T13:05:36;100246.34;;;22.09;84.31
48244;BME280;34053;51.088;6.572;2023-07-28T13:08:27;100241.44;;;22.14;85.73
48244;BME280;34053;51.088;6.572;2023-07-28T13:11:18;100235.78;;;22.40;86.12
48244;BME280;34053;51.088;6.572;2023-07-28T13:14:09;100239.38;;;22.39;85.09
48244;BME280;34053;51.088;6.572;2023-07-28T13:16:59;100238.28;;;22.62;84.80
48244;BME280;34053;51.088;6.572;2023-07-28T13:19:50;100239.34;;;22.50;85.00
48244;BME280;34053;51.088;6.572;2023-07-28T13:22:41;100242.13;;;22.70;84.79
48244;BME280;34053;51.088;6.572;2023-07-28T13:25:32;100231.63;;;22.78;85.38
48244;BME280;34053;51.088;6.572;2023-07-28T13:28:23;100229.91;;;22.77;83.40
48244;BME280;34053;51.088;6.572;2023-07-28T13:31:16;100233.22;;;22.81;83.82
48244;BME280;34053;51.088;6.572;2023-07-28T13:34:10;100233.06;;;22.82;82.91
48244;BME280;34053;51.088;6.572;2023-07-28T13:37:00;100238.13;;;22.85;83.17
48244;BME280;34053;51.088;6.572;2023-07-28T13:39:51;100233.09;;;22.92;81.87
48244;BME280;34053;51.088;6.572;2023-07-28T13:42:43;100238.56;;;22.81;82.45
48244;BME280;34053;51.088;6.572;2023-07-28T13:45:33;100231.97;;;22.94;82.47
48244;BME280;34053;51.088;6.572;2023-07-28T13:48:24;100243.22;;;22.88;82.79
48244;BME280;34053;51.088;6.572;2023-07-28T13:51:15;100241.47;;;22.77;83.87
48244;BME280;34053;51.088;6.572;2023-07-28T13:54:06;100242.91;;;22.60;83.92
48244;BME280;34053;51.088;6.572;2023-07-28T13:56:57;100242.13;;;22.70;84.19
48244;BME280;34053;51.088;6.572;2023-07-28T13:59:47;100247.78;;;22.45;83.53
48244;BME280;34053;51.088;6.572;2023-07-28T14:02:39;100251.28;;;22.46;83.65
48244;BME280;34053;51.088;6.572;2023-07-28T14:05:30;100242.22;;;22.58;83.48
48244;BME280;34053;51.088;6.572;2023-07-28T14:08:22;100240.59;;;22.46;83.82
48244;BME280;34053;51.088;6.572;2023-07-28T14:11:13;100240.59;;;22.46;84.64
48244;BME280;34053;51.088;6.572;2023-07-28T14:14:03;100229.16;;;22.44;84.74
48244;BME280;34053;51.088;6.572;2023-07-28T14:16:54;100235.53;;;22.31;85.31
48244;BME280;34053;51.088;6.572;2023-07-28T14:19:45;100232.34;;;22.38;85.00
48244;BME280;34053;51.088;6.572;2023-07-28T14:22:36;100238.06;;;22.33;84.95
48244;BME280;34053;51.088;6.572;2023-07-28T14:25:27;100235.97;;;22.15;86.42
48244;BME280;34053;51.088;6.572;2023-07-28T14:28:19;100241.03;;;22.30;85.47
48244;BME280;34053;51.088;6.572;2023-07-28T14:31:10;100231.22;;;22.19;86.45
48244;BME280;34053;51.088;6.572;2023-07-28T14:34:00;100229.59;;;22.07;86.83
48244;BME280;34053;51.088;6.572;2023-07-28T14:36:52;100231.75;;;22.13;86.39
48244;BME280;34053;51.088;6.572;2023-07-28T14:39:42;100224.19;;;22.18;86.73
48244;BME280;34053;51.088;6.572;2023-07-28T14:42:33;100228.34;;;22.32;86.72
48244;BME280;34053;51.088;6.572;2023-07-28T14:45:24;100221.66;;;22.38;86.00
48244;BME280;34053;51.088;6.572;2023-07-28T14:48:15;100229.22;;;22.32;87.63
48244;BME280;34053;51.088;6.572;2023-07-28T14:51:06;100222.84;;;22.45;86.26
48244;BME280;34053;51.088;6.572;2023-07-28T14:53:56;100219.69;;;22.51;86.70
48244;BME280;34053;51.088;6.572;2023-07-28T14:56:47;100219.69;;;22.51;85.92
48244;BME280;34053;51.088;6.572;2023-07-28T14:59:38;100224.16;;;22.51;85.99